Time;durP1;ratioP1;P1;durP2;ratioP2;P2;SDS_P1;SDS_P2;PMS_P1;PMS_P2;Temp;Humidity;BMP_temperature;BMP_pressure;BME280_temperature;BME280_humidity;BME280_pressure;Samples;Min_cycle;Max_cycle;Signal;HPM_P1;HPM_P2
2023/07/07 00:01:11;;;;;;;5.63;3.70;;;;;;;20.74;100.00;100018.97;5033334;28;20522;-80
2023/07/07 00:03:36;;;;;;;6.32;3.55;;;;;;;20.69;100.00;100020.59;5030006;28;20113;-79
2023/07/07 00:06:02;;;;;;;4.40;3.92;;;;;;;20.71;100.00;100024.75;5030613;28;20088;-80
2023/07/07 00:08:28;;;;;;;4.03;3.60;;;;;;;20.74;100.00;100021.66;5032043;28;20116;-79
2023/07/07 00:10:53;;;;;;;6.88;4.47;;;;;;;20.76;100.00;100025.00;5031155;28;20105;-80
2023/07/07 00:13:20;;;;;;;4.13;3.72;;;;;;;20.76;100.00;100019.63;5030849;28;20493;-79
2023/07/07 00:15:46;;;;;;;4.68;4.20;;;;;;;20.76;100.00;100033.03;5030730;28;20038;-79
2023/07/07 00:18:26;;;;;;;5.13;4.05;;;;;;;20.72;100.00;100026.41;5030305;28;20029;-79
2023/07/07 00:20:58;;;;;;;6.68;4.82;;;;;;;20.70;100.00;100028.47;5032058;28;20037;-80
2023/07/07 00:23:24;;;;;;;5.28;4.07;;;;;;;20.73;100.00;100041.50;5028353;28;20033;-79
2023/07/07 00:26:16;;;;;;;5.90;4.13;;;;;;;20.75;100.00;100035.91;5028890;28;20036;-79
2023/07/07 00:28:42;;;;;;;5.88;4.45;;;;;;;20.76;100.00;100037.56;5027658;28;20132;-80
2023/07/07 00:31:07;;;;;;;6.00;4.55;;;;;;;20.71;100.00;100043.53;5032818;28;20113;-79
2023/07/07 00:33:32;;;;;;;5.03;4.53;;;;;;;20.69;100.00;100042.88;5029449;28;20057;-80
2023/07/07 00:35:58;;;;;;;7.35;5.55;;;;;;;20.47;100.00;100045.81;5025504;28;20037;-79
2023/07/07 00:38:24;;;;;;;5.60;5.10;;;;;;;20.48;100.00;100040.28;5030040;28;20446;-79
2023/07/07 00:40:52;;;;;;;6.93;5.70;;;;;;;20.47;100.00;100033.25;5026542;28;20477;-79
2023/07/07 00:43:18;;;;;;;5.72;5.18;;;;;;;20.49;100.00;100028.53;5029335;28;20111;-78
2023/07/07 00:45:45;;;;;;;5.55;4.50;;;;;;;20.51;100.00;100034.50;5027304;28;20029;-79
2023/07/07 00:48:12;;;;;;;5.75;4.57;;;;;;;20.47;100.00;100038.59;5029750;28;20108;-78
2023/07/07 00:50:45;;;;;;;6.78;5.30;;;;;;;20.41;100.00;100017.94;5024294;28;20057;-79
2023/07/07 00:53:12;;;;;;;5.93;5.30;;;;;;;20.41;100.00;100012.59;5022584;28;20101;-79
2023/07/07 00:55:43;;;;;;;10.05;6.15;;;;;;;20.39;100.00;100014.63;5006595;28;20034;-79
2023/07/07 00:58:20;;;;;;;6.00;5.20;;;;;;;20.37;100.00;100019.38;5019159;28;20040;-79
2023/07/07 01:00:54;;;;;;;7.65;4.80;;;;;;;20.42;100.00;100022.28;5020906;28;20445;-79
2023/07/07 01:03:25;;;;;;;7.88;5.75;;;;;;;20.48;100.00;100024.19;5019801;28;20026;-79
2023/07/07 01:05:56;;;;;;;9.40;5.53;;;;;;;20.47;100.00;100017.16;5022591;28;20713;-79
2023/07/07 01:08:23;;;;;;;9.05;5.47;;;;;;;20.52;100.00;100030.81;5023083;28;20032;-79
2023/07/07 01:10:49;;;;;;;5.78;5.28;;;;;;;20.54;100.00;100023.41;5023233;28;20602;-79
2023/07/07 01:13:15;;;;;;;8.65;6.10;;;;;;;20.54;100.00;100017.22;5022877;28;20101;-80
2023/07/07 01:16:10;;;;;;;6.47;5.43;;;;;;;20.56;100.00;100021.34;5023440;28;20148;-80
2023/07/07 01:19:15;;;;;;;7.20;5.32;;;;;;;20.55;100.00;100019.72;5023839;28;20041;-79
2023/07/07 01:22:34;;;;;;;6.70;5.35;;;;;;;20.40;100.00;100024.31;5021787;28;20030;-79
2023/07/07 01:25:17;;;;;;;7.63;5.18;;;;;;;20.18;100.00;100025.34;5006572;28;20042;-78
2023/07/07 01:28:14;;;;;;;5.90;4.95;;;;;;;19.98;100.00;100026.00;5025162;28;20115;-78
2023/07/07 01:30:54;;;;;;;6.40;5.22;;;;;;;20.08;100.00;100027.53;5025026;28;20599;-79
2023/07/07 01:33:25;;;;;;;7.25;5.57;;;;;;;20.11;100.00;100032.50;5022060;28;20567;-79
2023/07/07 01:35:51;;;;;;;6.10;4.97;;;;;;;20.13;100.00;100035.81;5022069;28;20041;-79
2023/07/07 01:38:40;;;;;;;6.45;4.97;;;;;;;20.03;100.00;100039.63;5021142;28;20113;-78
2023/07/07 01:41:26;;;;;;;5.65;4.43;;;;;;;19.95;100.00;100039.78;5024939;28;20529;-79
2023/07/07 01:44:04;;;;;;;5.30;4.80;;;;;;;19.90;100.00;100036.03;5023067;28;20486;-78
2023/07/07 01:46:33;;;;;;;5.53;4.57;;;;;;;19.93;100.00;100041.81;5020169;28;20042;-78
2023/07/07 01:49:18;;;;;;;7.30;4.70;;;;;;;19.66;100.00;100049.78;5024103;28;20033;-78
2023/07/07 01:51:54;;;;;;;5.55;4.57;;;;;;;19.55;100.00;100048.44;5021408;28;20041;-78
2023/07/07 01:54:21;;;;;;;4.20;3.80;;;;;;;19.34;100.00;100053.69;5021527;28;20033;-79
2023/07/07 01:56:49;;;;;;;10.57;4.57;;;;;;;19.31;100.00;100041.53;5021746;28;20037;-80
2023/07/07 01:59:15;;;;;;;;;;;;;;;19.34;100.00;100045.66;5021341;28;19921;-79
2023/07/07 02:01:41;;;;;;;;;;;;;;;19.34;100.00;100034.94;5019614;28;19921;-80
2023/07/07 02:04:07;;;;;;;;;;;;;;;19.40;100.00;100039.56;5023800;28;19960;-81
2023/07/07 02:06:32;;;;;;;;;;;;;;;19.44;100.00;100046.22;5018807;28;19967;-80
2023/07/07 02:08:57;;;;;;;;;;;;;;;19.43;100.00;100039.19;5020692;28;19987;-81
2023/07/07 02:11:23;;;;;;;;;;;;;;;19.47;100.00;100051.19;5021771;28;19926;-80
2023/07/07 02:13:48;;;;;;;;;;;;;;;19.51;100.00;100044.44;5037172;28;19986;-79
2023/07/07 02:16:13;;;;;;;;;;;;;;;19.53;100.00;100043.25;5019754;28;19933;-80
2023/07/07 02:18:41;;;;;;;;;;;;;;;19.54;100.00;100044.09;5035473;28;20043;-79
2023/07/07 02:21:07;;;;;;;;;;;;;;;19.46;100.00;100047.69;5026345;28;19937;-79
2023/07/07 02:23:32;;;;;;;;;;;;;;;19.39;100.00;100053.94;5025246;28;19925;-80
2023/07/07 02:25:58;;;;;;;;;;;;;;;19.18;100.00;100047.53;5020251;28;20018;-79
2023/07/07 02:28:23;;;;;;;;;;;;;;;18.98;100.00;100046.41;5022629;28;19921;-80
2023/07/07 02:30:49;;;;;;;;;;;;;;;18.91;100.00;100045.50;5021942;28;19917;-80
2023/07/07 02:33:15;;;;;;;;;;;;;;;18.99;100.00;100048.09;5022136;28;20457;-80
2023/07/07 02:35:40;;;;;;;;;;;;;;;19.00;100.00;100048.91;5018469;28;19960;-80
2023/07/07 02:38:06;;;;;;;;;;;;;;;19.01;100.00;100046.06;5020270;28;19922;-79
2023/07/07 02:40:31;;;;;;;;;;;;;;;19.07;100.00;100050.69;5023379;28;19921;-80
2023/07/07 02:42:57;;;;;;;;;;;;;;;18.97;100.00;100047.44;5020289;28;19940;-80
2023/07/07 02:45:22;;;;;;;;;;;;;;;18.63;100.00;100053.31;5021861;28;20067;-79
2023/07/07 02:47:48;;;;;;;;;;;;;;;18.70;100.00;100050.75;5021962;28;19921;-79
2023/07/07 02:50:13;;;;;;;;;;;;;;;18.79;100.00;100055.81;5022283;28;19982;-79
2023/07/07 02:52:39;;;;;;;;;;;;;;;18.86;100.00;100053.25;5023487;28;20020;-80
2023/07/07 02:55:04;;;;;;;;;;;;;;;18.96;100.00;100067.19;5019457;28;19922;-80
2023/07/07 02:57:29;;;;;;;;;;;;;;;19.05;100.00;100063.41;5021650;28;19960;-80
2023/07/07 02:59:55;;;;;;;;;;;;;;;18.99;100.00;100072.16;5018855;28;20006;-82
2023/07/07 03:02:20;;;;;;;;;;;;;;;19.02;100.00;100068.31;5021638;28;19928;-80
2023/07/07 03:04:48;;;;;;;;;;;;;;;19.05;100.00;100063.41;5019798;28;19929;-79
2023/07/07 03:07:13;;;;;;;;;;;;;;;19.04;100.00;100061.72;5019457;28;19944;-79
2023/07/07 03:09:39;;;;;;;;;;;;;;;19.03;100.00;100059.22;5020660;28;20389;-80
2023/07/07 03:12:04;;;;;;;;;;;;;;;18.97;100.00;100071.50;5018219;28;19921;-78
2023/07/07 03:14:30;;;;;;;;;;;;;;;18.95;100.00;100067.38;5017637;28;19949;-79
2023/07/07 03:16:59;;;;;;;;;;;;;;;18.94;100.00;100071.88;5037505;28;19971;-78
2023/07/07 03:19:31;;;;;;;;;;;;;;;18.97;100.00;100055.47;5021939;28;19956;-79
2023/07/07 03:22:12;;;;;;;;;;;;;;;19.04;100.00;100053.72;5024445;28;19921;-78
2023/07/07 03:24:51;;;;;;;;;;;;;;;19.06;100.00;100058.88;5019809;28;19921;-79
2023/07/07 03:27:28;;;;;;;;;;;;;;;18.91;100.00;100061.53;5018045;28;19921;-78
2023/07/07 03:29:54;;;;;;;;;;;;;;;18.89;100.00;100055.56;5038271;28;19921;-79
2023/07/07 03:32:21;;;;;;;;;;;;;;;18.70;100.00;100061.44;5008152;28;19922;-79
2023/07/07 03:34:49;;;;;;;;;;;;;;;18.67;100.00;100065.31;5020918;28;19929;-78
2023/07/07 03:37:16;;;;;;;;;;;;;;;18.74;100.00;100065.41;5019617;28;19961;-77
2023/07/07 03:39:42;;;;;;;;;;;;;;;18.77;100.00;100067.72;5019739;28;19957;-79
2023/07/07 03:42:08;;;;;;;;;;;;;;;18.65;100.00;100071.88;5022200;28;19975;-79
2023/07/07 03:44:35;;;;;;;;;;;;;;;18.70;100.00;100077.47;5034319;28;19991;-78
2023/07/07 03:47:00;;;;;;;;;;;;;;;18.70;100.00;100072.97;5017480;28;20397;-79
2023/07/07 03:49:26;;;;;;;;;;;;;;;18.67;100.00;100075.19;5024429;28;20268;-79
2023/07/07 03:51:51;;;;;;;;;;;;;;;18.69;100.00;100067.81;5018827;28;19932;-80
2023/07/07 03:54:16;;;;;;;;;;;;;;;18.72;100.00;100064.78;5019425;28;19972;-79
2023/07/07 03:56:42;;;;;;;;;;;;;;;18.75;100.00;100067.06;5021236;28;20067;-80
2023/07/07 03:59:07;;;;;;;;;;;;;;;18.78;100.00;100072.91;5034534;28;20077;-79
2023/07/07 04:01:32;;;;;;;;;;;;;;;18.78;100.00;100061.38;5037111;28;20393;-78
2023/07/07 04:03:58;;;;;;;;;;;;;;;18.81;100.00;100071.69;5019160;28;19953;-78
2023/07/07 04:06:23;;;;;;;;;;;;;;;18.88;100.00;100072.63;5019543;28;20004;-80
2023/07/07 04:08:48;;;;;;;;;;;;;;;18.90;100.00;100073.28;5018790;28;20285;-78
2023/07/07 04:11:15;;;;;;;;;;;;;;;18.93;100.00;100075.56;5020093;28;20016;-78
2023/07/07 04:13:42;;;;;;;;;;;;;;;18.96;100.00;100069.88;5021170;28;19921;-80
2023/07/07 04:16:08;;;;;;;;;;;;;;;18.95;100.00;100086.91;5033986;28;20386;-81
2023/07/07 04:18:34;;;;;;;;;;;;;;;18.89;100.00;100084.16;5025611;28;19921;-80
2023/07/07 04:21:00;;;;;;;;;;;;;;;18.97;100.00;100078.69;5018650;28;19944;-80
2023/07/07 04:23:26;;;;;;;;;;;;;;;19.01;100.00;100088.03;5021088;28;20008;-77
2023/07/07 04:25:51;;;;;;;;;;;;;;;19.04;100.00;100080.47;5019566;28;20015;-77
2023/07/07 04:28:16;;;;;;;;;;;;;;;19.03;100.00;100081.47;5020377;28;20288;-78
2023/07/07 04:30:42;;;;;;;;;;;;;;;18.99;100.00;100082.03;5020575;28;20415;-78
2023/07/07 04:33:07;;;;;;;;;;;;;;;18.98;100.00;100078.53;5018907;28;19929;-77
2023/07/07 04:35:38;;;;;;;;;;;;;;;19.04;100.00;100080.47;5021491;28;19933;-75
2023/07/07 04:38:03;;;;;;;;;;;;;;;19.09;100.00;100086.06;5022712;28;19921;-77
2023/07/07 04:40:30;;;;;;;;;;;;;;;19.09;100.00;100091.44;5018322;28;19952;-75
2023/07/07 04:42:56;;;;;;;;;;;;;;;19.12;100.00;100096.44;5021302;28;19921;-80
2023/07/07 04:45:21;;;;;;;;;;;;;;;19.09;100.00;100107.47;5022701;28;19927;-78
2023/07/07 04:47:46;;;;;;;;;;;;;;;19.16;100.00;100102.22;5024798;28;19925;-78
2023/07/07 04:50:12;;;;;;;;;;;;;;;19.18;100.00;100110.91;5025665;28;19921;-79
2023/07/07 04:52:38;;;;;;;;;;;;;;;19.14;100.00;100105.06;5024456;28;20273;-79
2023/07/07 04:55:03;;;;;;;;;;;;;;;19.08;100.00;100111.19;5021858;28;19922;-79
2023/07/07 04:57:28;;;;;;;;;;;;;;;19.13;100.00;100114.13;5021529;28;20246;-79
2023/07/07 04:59:54;;;;;;;;;;;;;;;19.12;100.00;100117.81;5024268;28;20370;-79
2023/07/07 05:02:22;;;;;;;;;;;;;;;18.92;100.00;100132.75;5027207;28;20392;-79
2023/07/07 05:04:48;;;;;;;;;;;;;;;18.93;100.00;100131.72;5023256;28;20370;-79
2023/07/07 05:07:13;;;;;;;;;;;;;;;18.85;100.00;100131.81;5043646;23;19924;-75
2023/07/07 05:09:38;;;;;;;;;;;;;;;18.84;100.00;100140.84;5032596;28;19921;-77
2023/07/07 05:12:04;;;;;;;;;;;;;;;18.91;100.00;100140.97;5033354;28;19921;-76
2023/07/07 05:14:29;;;;;;;;;;;;;;;19.03;100.00;100129.59;5032908;28;19921;-77
2023/07/07 05:16:55;;;;;;;;;;;;;;;18.98;100.00;100134.69;5033410;28;19929;-76
2023/07/07 05:19:20;;;;;;;;;;;;;;;18.94;100.00;100130.72;5033531;28;19975;-76
2023/07/07 05:21:45;;;;;;;;;;;;;;;18.97;100.00;100133.00;5032723;28;19921;-75
2023/07/07 05:24:11;;;;;;;;;;;;;;;19.09;100.00;100134.22;5032981;28;20393;-75
2023/07/07 05:26:36;;;;;;;;;;;;;;;19.15;100.00;100149.53;5032596;28;19964;-75
2023/07/07 05:29:02;;;;;;;;;;;;;;;19.23;100.00;100141.44;5048416;28;19921;-77
2023/07/07 05:31:28;;;;;;;;;;;;;;;19.30;100.00;100138.03;5031435;28;19928;-77
2023/07/07 05:33:53;;;;;;;;;;;;;;;19.39;100.00;100145.78;5031715;28;19921;-76
2023/07/07 05:36:19;;;;;;;;;;;;;;;19.32;100.00;100144.03;5032988;28;19943;-76
2023/07/07 05:38:44;;;;;;;;;;;;;;;19.30;100.00;100149.56;5031991;28;19988;-75
2023/07/07 05:41:10;;;;;;;;;;;;;;;19.39;100.00;100155.63;5032538;28;19921;-76
2023/07/07 05:43:36;;;;;;;;;;;;;;;19.46;100.00;100160.09;5031022;28;19930;-75
2023/07/07 05:46:03;;;;;;;;;;;;;;;19.45;100.00;100155.75;5032646;28;19925;-76
2023/07/07 05:48:29;;;;;;;;;;;;;;;19.51;100.00;100159.53;5033284;28;19921;-77
2023/07/07 05:50:59;;;;;;;;;;;;;;;19.57;100.00;100158.81;5032575;28;19921;-77
2023/07/07 05:53:24;;;;;;;;;;;;;;;19.53;100.00;100158.34;5031895;28;19925;-76
2023/07/07 05:55:50;;;;;;;;;;;;;;;19.52;100.00;100167.41;5031782;28;19944;-75
2023/07/07 05:58:16;;;;;;;;;;;;;;;19.55;100.00;100171.56;5032417;28;20010;-77
2023/07/07 06:00:42;;;;;;;;;;;;;;;19.62;100.00;100167.09;5031907;28;19965;-76
2023/07/07 06:03:08;;;;;;;;;;;;;;;19.75;100.00;100171.81;5031014;28;19957;-78
2023/07/07 06:05:33;;;;;;;;;;;;;;;19.83;100.00;100159.16;5031809;28;19921;-76
2023/07/07 06:07:59;;;;;;;;;;;;;;;19.90;100.00;100160.06;5031766;28;19921;-74
2023/07/07 06:10:25;;;;;;;;;;;;;;;19.92;100.00;100163.38;5031649;28;19929;-75
2023/07/07 06:12:51;;;;;;;;;;;;;;;19.95;100.00;100163.00;5032364;28;20118;-75
2023/07/07 06:15:16;;;;;;;;;;;;;;;19.96;100.00;100161.16;5032506;28;19925;-84
2023/07/07 06:17:41;;;;;;;;;;;;;;;20.06;100.00;100158.16;5031973;28;19944;-75
2023/07/07 06:20:07;;;;;;;;;;;;;;;20.09;100.00;100155.13;5031888;28;19921;-75
2023/07/07 06:22:32;;;;;;;;;;;;;;;20.21;100.00;100166.97;5046419;28;19986;-76
2023/07/07 06:24:59;;;;;;;;;;;;;;;20.28;100.00;100168.72;5031736;28;19924;-75
2023/07/07 06:27:24;;;;;;;;;;;;;;;20.32;100.00;100169.22;5031174;28;19941;-75
2023/07/07 06:29:50;;;;;;;;;;;;;;;20.37;100.00;100166.78;5031375;28;19947;-75
2023/07/07 06:32:15;;;;;;;;;;;;;;;20.48;100.00;100166.28;5031730;28;19974;-75
2023/07/07 06:34:40;;;;;;;;;;;;;;;20.56;100.00;100166.13;5031497;28;20019;-75
2023/07/07 06:37:06;;;;;;;;;;;;;;;20.67;100.00;100171.00;5031370;28;19921;-76
2023/07/07 06:39:31;;;;;;;;;;;;;;;20.71;100.00;100164.22;5031622;28;19948;-75
2023/07/07 06:41:59;;;;;;;;;;;;;;;20.80;100.00;100168.41;5031300;28;19990;-75
2023/07/07 06:44:24;;;;;;;;;;;;;;;20.90;100.00;100169.94;5029870;28;19921;-76
2023/07/07 06:46:50;;;;;;;;;;;;;;;20.94;100.00;100179.25;5031177;28;19921;-74
2023/07/07 06:49:15;;;;;;;;;;;;;;;20.97;100.00;100184.25;5031476;28;19921;-75
2023/07/07 06:51:41;;;;;;;;;;;;;;;21.05;100.00;100197.50;5030912;28;20012;-75
2023/07/07 06:54:06;;;;;;;;;;;;;;;21.15;100.00;100196.16;5031130;28;19956;-76
2023/07/07 06:56:32;;;;;;;;;;;;;;;21.24;100.00;100203.03;5031057;28;19917;-75
2023/07/07 06:58:58;;;;;;;;;;;;;;;21.31;100.00;100203.09;5031098;28;19959;-76
2023/07/07 07:01:24;;;;;;;;;;;;;;;21.29;100.00;100199.75;5031140;28;19921;-75
2023/07/07 07:03:50;;;;;;;;;;;;;;;21.38;100.00;100198.59;5031122;28;19995;-75
2023/07/07 07:06:15;;;;;;;;;;;;;;;21.43;100.00;100193.47;5030768;28;19921;-76
2023/07/07 07:08:41;;;;;;;;;;;;;;;21.51;100.00;100187.91;5030568;28;19924;-77
2023/07/07 07:11:07;;;;;;;;;;;;;;;21.61;100.00;100196.47;5031217;28;19983;-74
2023/07/07 07:13:33;;;;;;;;;;;;;;;21.67;100.00;100191.31;5030724;28;20360;-74
2023/07/07 07:15:58;;;;;;;;;;;;;;;21.75;100.00;100193.81;5031694;28;19968;-76
2023/07/07 07:18:24;;;;;;;;;;;;;;;21.83;100.00;100190.97;5030745;28;19964;-75
2023/07/07 07:20:50;;;;;;;;;;;;;;;21.90;100.00;100181.91;5030621;28;19928;-75
2023/07/07 07:23:15;;;;;;;;;;;;;;;21.99;100.00;100190.66;5030623;28;20019;-75
2023/07/07 07:25:42;;;;;;;;;;;;;;;22.04;100.00;100188.19;5030460;28;20020;-75
2023/07/07 07:28:08;;;;;;;;;;;;;;;22.11;100.00;100183.66;5030600;28;19953;-75
2023/07/07 07:30:33;;;;;;;;;;;;;;;22.19;100.00;100191.56;5030162;28;19963;-75
2023/07/07 07:33:02;;;;;;;;;;;;;;;22.26;100.00;100192.41;5030627;28;19928;-75
2023/07/07 07:35:27;;;;;;;;;;;;;;;22.34;100.00;100189.53;5030346;28;20400;-74
2023/07/07 07:37:52;;;;;;;;;;;;;;;22.41;100.00;100185.00;5030425;28;19921;-75
2023/07/07 07:40:18;;;;;;;;;;;;;;;22.46;100.00;100187.88;5029350;28;19927;-75
2023/07/07 07:42:44;;;;;;;;;;;;;;;22.55;100.00;100185.03;5030299;28;19921;-74
2023/07/07 07:45:14;;;;;;;;;;;;;;;22.58;100.00;100174.66;5030324;28;19921;-74
2023/07/07 07:47:39;;;;;;;;;;;;;;;22.64;100.00;100178.38;5031358;28;20388;-75
2023/07/07 07:50:05;;;;;;;;;;;;;;;22.67;100.00;100178.00;5030527;28;19921;-75
2023/07/07 07:52:30;;;;;;;;;;;;;;;22.72;100.00;100178.22;5029833;28;19929;-75
2023/07/07 07:54:56;;;;;;;;;;;;;;;22.78;100.00;100180.94;5030476;28;19925;-74
2023/07/07 07:57:21;;;;;;;;;;;;;;;22.83;100.00;100174.91;5030334;28;20018;-75
2023/07/07 07:59:47;;;;;;;;;;;;;;;22.85;100.00;100175.56;5030026;28;19932;-75
2023/07/07 08:02:12;;;;;;;;;;;;;;;22.84;100.00;100184.66;5029991;28;19921;-76
2023/07/07 08:04:37;;;;;;;;;;;;;;;22.93;100.00;100175.31;5030073;28;19928;-75
2023/07/07 08:07:03;;;;;;;;;;;;;;;22.99;100.00;100171.81;5030263;28;19928;-75
2023/07/07 08:09:28;;;;;;;;;;;;;;;23.05;100.00;100181.75;5029723;28;19921;-75
2023/07/07 08:11:56;;;;;;;;;;;;;;;23.10;100.00;100184.63;5030407;28;20016;-74
2023/07/07 08:14:27;;;;;;;;;;;;;;;23.15;100.00;100176.75;5030056;28;19925;-74
2023/07/07 08:16:52;;;;;;;;;;;;;;;23.15;100.00;100181.34;5030236;28;19937;-75
2023/07/07 08:19:18;;;;;;;;;;;;;;;23.22;100.00;100182.13;5034665;28;19921;-75
2023/07/07 08:21:43;;;;;;;;;;;;;;;23.25;100.00;100182.56;5035687;28;19943;-75
2023/07/07 08:24:09;;;;;;;;;;;;;;;23.31;100.00;100185.44;5033894;28;19921;-74
2023/07/07 08:26:34;;;;;;;;;;;;;;;23.37;100.00;100190.00;5033563;28;19925;-73
2023/07/07 08:29:00;;;;;;;;;;;;;;;23.41;100.00;100191.22;5034212;28;19982;-75
2023/07/07 08:31:25;;;;;;;;;;;;;;;23.48;100.00;100192.06;5033436;28;19956;-75
2023/07/07 08:33:51;;;;;;;;;;;;;;;23.53;100.00;100189.56;5033694;28;20000;-75
2023/07/07 08:36:16;;;;;;;;;;;;;;;23.60;100.00;100201.97;5033907;28;19928;-75
2023/07/07 08:38:42;;;;;;;;;;;;;;;23.66;100.00;100205.69;5031830;28;20008;-75
2023/07/07 08:41:07;;;;;;;;;;;;;;;23.73;100.00;100203.81;5033770;28;19921;-75
2023/07/07 08:43:33;;;;;;;;;;;;;;;23.78;100.00;100198.59;5033529;28;19925;-74
2023/07/07 08:45:58;;;;;;;;;;;;;;;23.85;100.00;100199.41;5033626;28;19936;-75
2023/07/07 08:48:33;;;;;;;;;;;;;;;23.93;100.00;100195.63;5033212;28;19929;-74
2023/07/07 08:51:00;;;;;;;;;;;;;;;23.98;100.00;100193.94;5036296;28;19921;-74
2023/07/07 08:53:32;;;;;;;;;;;;;;;24.04;100.00;100197.66;5032969;28;19929;-74
2023/07/07 08:56:16;;;;;;;;;;;;;;;24.11;100.00;100198.47;5033510;28;20008;-74
2023/07/07 08:58:44;;;;;;;;;;;;;;;24.18;100.00;100201.13;5030547;28;20331;-74
2023/07/07 09:01:10;;;;;;;;;;;;;;;24.22;100.00;100188.88;5033545;28;19976;-74
2023/07/07 09:03:54;;;;;;;;;;;;;;;24.25;100.00;100191.16;5032991;28;19963;-75
2023/07/07 09:06:27;;;;;;;;;;;;;;;24.30;100.00;100196.72;5047364;28;19928;-75
2023/07/07 09:09:11;;;;;;;;;;;;;;;24.30;100.00;100191.34;5033314;28;19921;-75
2023/07/07 09:11:37;;;;;;;;;;;;;;;24.38;100.00;100193.78;5028981;28;19928;-73
2023/07/07 09:14:03;;;;;;;;;;;;;;;24.39;100.00;100179.25;5033896;28;19925;-74
2023/07/07 09:16:29;;;;;;;;;;;;;;;24.43;100.00;100181.31;5033227;28;20336;-75
2023/07/07 09:19:04;;;;;;;;;;;;;;;24.48;100.00;100186.03;5033017;28;19921;-76
2023/07/07 09:21:34;;;;;;;;;;;;;;;24.49;100.00;100179.59;5035380;28;20349;-75
2023/07/07 09:24:03;;;;;;;;;;;;;;;24.50;100.00;100172.34;5032913;28;20245;-75
2023/07/07 09:26:33;;;;;;;;;;;;;;;24.54;100.00;100170.84;5032736;28;20285;-75
2023/07/07 09:28:59;;;;;;;;;;;;;;;24.59;100.00;100174.53;5031457;28;19921;-75
2023/07/07 09:31:31;;;;;;;;;;;;;;;24.65;100.00;100173.66;5033404;28;19921;-75
2023/07/07 09:33:59;;;;;;;;;;;;;;;24.73;100.00;100170.72;5033775;28;20034;-75
2023/07/07 09:36:25;;;;;;;;;;;;;;;24.79;100.00;100169.84;5033983;28;20285;-75
2023/07/07 09:39:17;;;;;;;;;;;;;;;24.86;100.00;100175.16;5034278;28;19921;-73
2023/07/07 09:41:48;;;;;;;;;;;;;;;24.95;100.00;100167.66;5031095;28;20857;-74
2023/07/07 09:44:14;;;;;;;;;;;;;;;25.01;100.00;100166.75;5034427;28;20018;-75
2023/07/07 09:46:58;;;;;;;;;;;;;;;25.03;100.00;100160.09;5033934;28;19968;-75
2023/07/07 09:49:35;;;;;;;;;;;;;;;25.07;100.00;100165.88;5033512;28;20436;-75
2023/07/07 09:52:14;;;;;;;;;;;;;;;25.12;100.00;100163.34;5034477;28;19921;-75
2023/07/07 09:54:40;;;;;;;;;;;;;;;25.17;100.00;100167.00;5030459;28;19928;-75
2023/07/07 09:57:13;;;;;;;;;;;;;;;25.22;100.00;100169.03;5033707;28;19921;-75
2023/07/07 09:59:42;;;;;;;;;;;;;;;25.27;100.00;100171.94;5030107;28;20066;-75
2023/07/07 10:02:14;;;;;;;;;;;;;;;25.30;100.00;100166.06;5033626;28;20483;-74
2023/07/07 10:04:42;;;;;;;;;;;;;;;25.34;100.00;100164.56;5033522;28;20000;-75
2023/07/07 10:07:09;;;;;;;;;;;;;;;25.39;100.00;100169.31;5034097;28;20288;-75
2023/07/07 10:09:35;;;;;;;;;;;;;;;25.47;100.00;100169.81;5034776;28;20336;-73
2023/07/07 10:12:00;;;;;;;;;;;;;;;25.42;99.79;100168.84;5034676;28;19921;-75
2023/07/07 10:14:28;;;;;;;;;;;;;;;25.42;100.00;100166.97;5034024;28;19933;-75
2023/07/07 10:16:53;;;;;;;;;;;;;;;25.44;100.00;100167.59;5034673;28;20012;-75
2023/07/07 10:19:19;;;;;;;;;;;;;;;25.51;100.00;100173.72;5033737;28;19979;-75
2023/07/07 10:21:44;;;;;;;;;;;;;;;25.58;100.00;100174.50;5036007;28;19925;-75
2023/07/07 10:24:11;;;;;;;;;;;;;;;25.65;99.94;100169.03;5032205;28;20007;-74
2023/07/07 10:26:38;;;;;;;;;;;;;;;25.73;99.41;100167.91;5033360;28;19920;-75
2023/07/07 10:29:04;;;;;;;;;;;;;;;25.78;99.33;100162.63;5033585;28;19927;-75
2023/07/07 10:31:29;;;;;;;;;;;;;;;25.83;99.06;100165.50;5033875;28;19921;-74
2023/07/07 10:34:17;;;;;;;;;;;;;;;25.92;98.68;100158.72;5034158;28;19921;-75
2023/07/07 10:36:43;;;;;;;;;;;;;;;25.99;97.45;100159.44;5030780;28;20060;-75
2023/07/07 10:39:08;;;;;;;;;;;;;;;26.01;96.39;100163.59;5033658;28;19924;-76
2023/07/07 10:41:34;;;;;;;;;;;;;;;26.07;95.20;100167.25;5033305;28;19929;-75
2023/07/07 10:43:59;;;;;;;;;;;;;;;26.11;95.30;100160.31;5033774;28;19935;-75
2023/07/07 10:46:25;;;;;;;;;;;;;;;26.16;94.77;100165.03;5033097;28;19959;-75
2023/07/07 10:48:54;;;;;;;;;;;;;;;26.23;95.02;100163.94;5033415;28;19925;-76
2023/07/07 10:51:35;;;;;;;;;;;;;;;26.25;94.82;100159.13;5036201;28;20281;-75
2023/07/07 10:54:06;;;;;;;;;;;;;;;26.26;94.66;100154.53;5033173;28;19921;-75
2023/07/07 10:56:55;;;;;;;;;;;;;;;26.30;95.12;100161.97;5028797;28;20292;-77
2023/07/07 10:59:29;;;;;;;;;;;;;;;26.30;92.97;100166.53;5031724;28;19921;-74
2023/07/07 11:01:55;;;;;;;;;;;;;;;26.29;91.83;100163.00;5033004;28;19917;-77
2023/07/07 11:04:23;;;;;;;;;;;;;;;26.32;92.83;100151.75;5032648;28;19928;-76
2023/07/07 11:07:06;;;;;;;;;;;;;;;26.39;92.38;100160.56;5031346;28;19929;-77
2023/07/07 11:09:50;;;;;;;;;;;;;;;26.38;91.90;100148.13;5027037;28;20392;-75
2023/07/07 11:12:25;;;;;;;;;;;;;;;26.42;92.00;100148.47;5029753;28;20285;-76
2023/07/07 11:14:50;;;;;;;;;;;;;;;26.49;90.70;100144.59;5031786;28;19921;-76
2023/07/07 11:17:16;;;;;;;;;;;;;;;26.53;91.20;100144.13;5031934;28;20016;-76
2023/07/07 11:20:13;;;;;;;;;;;;;;;26.58;91.62;100136.13;5031168;28;19932;-78
2023/07/07 11:23:02;;;;;;;;;;;;;;;26.60;90.68;100152.97;4999905;28;19921;-75
2023/07/07 11:25:41;;;;;;;;;;;;;;;26.65;91.08;100142.28;5031185;28;20267;-77
2023/07/07 11:28:21;;;;;;;;;;;;;;;26.70;91.22;100129.69;5028086;28;19921;-76
2023/07/07 11:31:08;;;;;;;3.05;2.35;;;;;;;26.75;90.21;100132.50;5030953;28;20084;-76
2023/07/07 11:33:46;;;;;;;2.70;2.50;;;;;;;26.82;90.84;100126.97;5026893;28;20133;-76
2023/07/07 11:36:43;;;;;;;4.10;2.83;;;;;;;26.83;88.73;100128.63;5028435;28;20465;-75
2023/07/07 11:39:14;;;;;;;3.60;2.60;;;;;;;26.87;89.82;100124.38;5021323;28;20378;-74
2023/07/07 11:41:40;;;;;;;3.33;2.78;;;;;;;27.03;88.71;100118.31;5019124;28;20049;-74
2023/07/07 11:44:27;;;;;;;5.07;2.53;;;;;;;27.13;87.38;100123.97;5022866;28;20026;-77
2023/07/07 11:47:14;;;;;;;3.25;2.75;;;;;;;27.18;87.11;100120.53;5028220;28;20030;-76
2023/07/07 11:50:17;;;;;;;4.70;2.78;;;;;;;27.24;85.15;100125.81;5027787;28;20394;-75
2023/07/07 11:52:52;;;;;;;3.45;2.80;;;;;;;27.28;85.99;100116.16;5022039;28;20926;-76
2023/07/07 11:55:27;;;;;;;5.93;2.50;;;;;;;27.33;85.71;100109.22;5027851;28;20038;-76
2023/07/07 11:58:11;;;;;;;3.15;2.50;;;;;;;27.46;85.38;100111.63;5028296;28;20348;-77
2023/07/07 12:00:56;;;;;;;4.05;2.35;;;;;;;27.59;84.25;100114.13;5033398;28;20033;-76
2023/07/07 12:03:34;;;;;;;;;;;;;;;27.66;84.42;100112.09;5037745;28;20380;-77
2023/07/07 12:06:02;;;;;;;;;;;;;;;27.75;82.13;100116.06;5037434;28;20009;-77
2023/07/07 12:08:40;;;;;;;;;;;;;;;27.89;81.75;100106.59;5036612;28;19924;-77
2023/07/07 12:11:09;;;;;;;;;;;;;;;27.95;80.93;100102.91;5033812;28;19917;-77
2023/07/07 12:13:38;;;;;;;;;;;;;;;28.00;80.56;100108.41;5035766;28;19916;-76
2023/07/07 12:16:10;;;;;;;;;;;;;;;28.08;79.95;100105.31;5033764;28;20353;-76
2023/07/07 12:18:37;;;;;;;;;;;;;;;28.18;79.62;100096.56;5033730;28;20335;-76
2023/07/07 12:21:06;;;;;;;;;;;;;;;28.34;77.58;100108.50;5036498;28;20004;-74
2023/07/07 12:23:37;;;;;;;;;;;;;;;28.50;77.49;100103.09;5032798;28;19921;-75